Flight Track Log - Related Links

Times and Time Zones

All times are in EDT time to prevent confusion due to time zone crossing. See the GLA63P flight status page for this flight to view local times or setup timezone preferences in your user account.

Time Position Orientation Groundspeed Altitude Reporting Facility
EDT Latitude Longitude Course Direction KTS MPH feet Rate Location/Type
Wed 10:19:10 AM 38.7722 -109.7956 North 166 191 9,000  Level Denver Center
Wed 10:20:11 AM 38.7597 -109.7269 103° East 176 203 10,900 1,707 Climbing Denver Center
Wed 10:21:13 AM 38.7525 -109.6586 98° East 193 222 12,500 1,707 Climbing Denver Center
Wed 10:22:14 AM 38.7472 -109.5775 95° East 200 230 14,400 1,707 Climbing Denver Center
Wed 10:23:00 AM 38.6843 -109.1726 102° East  Level FlightAware Approximate
Wed 10:23:16 AM 38.7333 -109.4883 101° East 240 276 16,000  Level Denver Center
Wed 10:24:17 AM 38.7275 -109.3989 95° East 254 292 17,400 1,317 Climbing Denver Center
Wed 10:25:19 AM 38.7200 -109.2983 95° East 263 303 18,700 1,268 Climbing Denver Center
Wed 10:26:20 AM 38.7131 -109.2011 95° East 276 318 20,000 1,171 Climbing Denver Center
Wed 10:27:22 AM 38.7072 -109.0992 94° East 286 329 21,100 1,113 Climbing Denver Center
Wed 10:28:24 AM 38.7042 -108.9867 92° East 296 341 22,300 1,024 Climbing Denver Center
Wed 10:29:25 AM 38.7033 -108.8794 91° East 301 346 23,200 829 Climbing Denver Center
Wed 10:30:27 AM 38.6958 -108.7719 95° East 305 351 24,000 732 Climbing Denver Center
Wed 10:31:28 AM 38.6828 -108.6528 98° East 310 357 24,700 537 Climbing Denver Center
Wed 10:32:30 AM 38.6714 -108.5442 98° East 320 368 25,100 145 Climbing Denver Center
Wed 10:33:32 AM 38.6594 -108.4306 98° East 334 384 25,000 -49 Descending Denver Center
Wed 10:34:33 AM 38.6447 -108.2936 98° East 348 400 25,000  Level Denver Center
Wed 10:35:35 AM 38.6314 -108.1728 98° East 358 412 25,000  Level Denver Center
Wed 10:36:37 AM 38.6100 -108.0361 101° East 354 407 25,000  Level Denver Center
Wed 10:37:39 AM 38.5922 -107.9192 101° East 352 405 25,000  Level Denver Center
Wed 10:38:40 AM 38.5733 -107.7831 100° East 350 403 25,000  Level Denver Center
Wed 10:39:42 AM 38.5575 -107.6636 100° East 356 410 25,000  Level Denver Center
Wed 10:40:44 AM 38.5317 -107.5283 104° East 353 406 25,000  Level Denver Center
Wed 10:41:46 AM 38.5089 -107.4139 104° East 349 402 25,000 -48 Level Denver Center
Wed 10:42:48 AM 38.4894 -107.3000 102° East 346 398 24,900  Descending Denver Center
Wed 10:43:49 AM 38.4739 -107.1767 99° East 345 397 25,000 49 Climbing Denver Center
Wed 10:44:51 AM 38.4642 -107.0561 96° East 342 394 25,000  Level Denver Center
Wed 10:45:53 AM 38.4725 -106.9369 85° East 347 399 25,000  Level Denver Center
Wed 10:46:55 AM 38.5297 -106.8114 60° Northeast 341 392 25,000  Level Denver Center
Wed 10:47:57 AM 38.5683 -106.6989 66° East 343 395 25,000  Level Denver Center
Wed 10:48:59 AM 38.6039 -106.5844 68° East 345 397 25,000  Level Denver Center
Wed 10:50:01 AM 38.6436 -106.4733 65° Northeast 344 396 25,000  Level Denver Center
Wed 10:51:03 AM 38.6786 -106.3672 67° East 327 376 25,000  Level Denver Center
Wed 10:52:05 AM 38.7117 -106.2761 65° Northeast 291 335 25,000 -48 Level Denver Center
Wed 10:53:07 AM 38.7483 -106.1658 67° East 279 321 24,900  Descending Denver Center
Wed 10:54:09 AM 38.7758 -106.0703 70° East 282 325 25,000 97 Climbing Denver Center
Wed 10:55:11 AM 38.8231 -105.9864 54° Northeast 287 330 25,100  Climbing Denver Center
Wed 10:56:13 AM 38.8703 -105.8994 55° Northeast 293 337 25,000 -532 Descending Denver Center
Wed 10:57:15 AM 38.9236 -105.8211 49° Northeast 289 333 24,000 -1,355 Descending Denver Center
Wed 10:58:17 AM 38.9728 -105.7433 51° Northeast 281 323 22,200 -1,790 Descending Denver Center
Wed 10:59:19 AM 39.0228 -105.6686 49° Northeast 274 315 20,300 -1,790 Descending Denver Center
Wed 11:00:21 AM 39.0767 -105.5861 50° Northeast 259 298 18,500 -1,597 Descending Denver Center
Wed 11:01:23 AM 39.1197 -105.5219 49° Northeast 241 277 17,000 -1,016 Descending Denver Center
Wed 11:02:25 AM 39.1681 -105.4625 44° Northeast 247 284 16,400 -387 Descending Denver Center
Wed 11:03:27 AM 39.2192 -105.3894 48° Northeast 254 292 16,200 -194 Descending Denver Center
Wed 11:04:29 AM 39.2661 -105.3144 51° Northeast 266 306 16,000 -435 Descending Denver Center
Wed 11:05:31 AM 39.2992 -105.2206 66° East 277 319 15,300 -672 Descending Denver Center
Wed 11:06:34 AM 39.3108 -105.1256 81° East 270 311 14,600 -672 Descending Denver Center
Wed 11:07:36 AM 39.3214 -105.0236 82° East 268 308 13,900 -634 Descending Denver Center
Wed 11:08:37 AM 39.3264 -104.9292 86° East 265 305 13,300 -439 Descending Denver Center
Wed 11:09:39 AM 39.3347 -104.8342 83° East 254 292 13,000 -387 Descending Denver Center
Wed 11:10:41 AM 39.3375 -104.7547 87° East 217 250 12,500 -823 Descending Denver Center
Wed 11:11:43 AM 39.3700 -104.7081 48° Northeast 202 232 11,300 -1,016 Descending Denver Center
Wed 11:12:45 AM 39.4250 -104.6858 17° North 193 222 10,400 -581 Descending Denver Center
Wed 11:13:47 AM 39.4781 -104.6703 13° North 196 226 10,100 -97 Descending Denver Center
Wed 11:14:49 AM 39.5375 -104.6644 North 198 228 10,200  Climbing Denver Center
Wed 11:15:51 AM 39.5919 -104.6639 360° North 196 226 10,100 -387 Descending Denver Center
Wed 11:16:53 AM 39.6503 -104.6631 North 193 222 9,400 -919 Descending Denver Center
Wed 11:17:55 AM 39.7036 -104.6611 North 191 220 8,200 -1,104 Descending Denver Center
Wed 11:18:58 AM 39.7569 -104.6617 360° North 192 221 7,100 -1,056 Descending Denver Center
Wed 11:20:00 AM 39.8039 -104.6614 360° North 157 181 6,000 -823 Descending Denver Center
Wed 11:21:02 AM 39.8411 -104.6606 North 138 159 5,400 -581 Descending Denver Center
Wed 11:23:00 AM 39.8500 -104.6667 346° North  Level FlightAware Approximate
Wed 11:30:00 AM 39.8617 -104.6732 346° North  Level Estimated
Wed 11:31:00 AM 39.8617 -104.6732 346° North  Level Estimated

Login

Don't have an account? Register now (free) for customized features, flight alerts, and more!